sensor_id;sensor_type;location;lat;lon;timestamp;pressure;altitude;pressure_sealevel;temperature;humidity
61786;BME280;47692;53.714;11.372;2023-02-14T00:01:09;103197.03;;;3.64;99.29
61786;BME280;47692;53.714;11.372;2023-02-14T00:03:34;103202.19;;;3.64;99.44
61786;BME280;47692;53.714;11.372;2023-02-14T00:06:08;103195.16;;;3.79;97.40
61786;BME280;47692;53.714;11.372;2023-02-14T00:08:34;103191.19;;;3.87;94.55
61786;BME280;47692;53.714;11.372;2023-02-14T00:11:01;103191.94;;;3.85;94.62
61786;BME280;47692;53.714;11.372;2023-02-14T00:13:26;103196.09;;;3.81;95.10
61786;BME280;47692;53.714;11.372;2023-02-14T00:15:52;103201.41;;;3.84;95.84
61786;BME280;47692;53.714;11.372;2023-02-14T00:18:18;103196.31;;;3.86;95.85
61786;BME280;47692;53.714;11.372;2023-02-14T00:20:43;103193.72;;;3.86;96.02
61786;BME280;47692;53.714;11.372;2023-02-14T00:23:09;103187.53;;;3.82;95.65
61786;BME280;47692;53.714;11.372;2023-02-14T00:25:34;103189.16;;;3.80;95.70
61786;BME280;47692;53.714;11.372;2023-02-14T00:27:59;103182.84;;;3.74;96.05
61786;BME280;47692;53.714;11.372;2023-02-14T00:30:25;103187.78;;;3.69;96.18
61786;BME280;47692;53.714;11.372;2023-02-14T00:32:50;103187.44;;;3.61;96.43
61786;BME280;47692;53.714;11.372;2023-02-14T00:35:15;103181.13;;;3.54;96.69
61786;BME280;47692;53.714;11.372;2023-02-14T00:37:41;103186.13;;;3.51;96.98
61786;BME280;47692;53.714;11.372;2023-02-14T00:40:07;103182.53;;;3.48;97.39
61786;BME280;47692;53.714;11.372;2023-02-14T00:42:33;103191.97;;;3.47;97.98
61786;BME280;47692;53.714;11.372;2023-02-14T00:44:58;103188.59;;;3.48;97.30
61786;BME280;47692;53.714;11.372;2023-02-14T00:47:24;103184.22;;;3.47;96.63
61786;BME280;47692;53.714;11.372;2023-02-14T00:49:49;103182.69;;;3.51;96.41
61786;BME280;47692;53.714;11.372;2023-02-14T00:52:14;103183.72;;;3.54;96.71
61786;BME280;47692;53.714;11.372;2023-02-14T00:54:40;103183.53;;;3.51;96.54
61786;BME280;47692;53.714;11.372;2023-02-14T00:57:05;103180.84;;;3.48;96.68
61786;BME280;47692;53.714;11.372;2023-02-14T00:59:30;103181.13;;;3.54;97.02
61786;BME280;47692;53.714;11.372;2023-02-14T01:01:56;103186.41;;;3.58;96.77
61786;BME280;47692;53.714;11.372;2023-02-14T01:04:21;103186.13;;;3.51;95.42
61786;BME280;47692;53.714;11.372;2023-02-14T01:06:46;103179.41;;;3.55;95.38
61786;BME280;47692;53.714;11.372;2023-02-14T01:09:12;103174.19;;;3.53;94.84
61786;BME280;47692;53.714;11.372;2023-02-14T01:11:38;103176.75;;;3.53;95.21
61786;BME280;47692;53.714;11.372;2023-02-14T01:14:03;103172.47;;;3.54;95.25
61786;BME280;47692;53.714;11.372;2023-02-14T01:16:29;103176.81;;;3.55;96.14
61786;BME280;47692;53.714;11.372;2023-02-14T01:18:55;103163.84;;;3.53;96.30
61786;BME280;47692;53.714;11.372;2023-02-14T01:21:27;103174.19;;;3.53;96.53
61786;BME280;47692;53.714;11.372;2023-02-14T01:23:56;103175.97;;;3.54;96.68
61786;BME280;47692;53.714;11.372;2023-02-14T01:26:23;103164.72;;;3.54;96.88
61786;BME280;47692;53.714;11.372;2023-02-14T01:28:49;103167.25;;;3.52;97.01
61786;BME280;47692;53.714;11.372;2023-02-14T01:31:17;103178.44;;;3.53;97.35
61786;BME280;47692;53.714;11.372;2023-02-14T01:33:44;103168.13;;;3.53;97.31
61786;BME280;47692;53.714;11.372;2023-02-14T01:36:36;103173.66;;;3.61;96.91
61786;BME280;47692;53.714;11.372;2023-02-14T01:39:04;103166.19;;;3.67;95.52
61786;BME280;47692;53.714;11.372;2023-02-14T01:41:33;103169.28;;;3.60;93.73
61786;BME280;47692;53.714;11.372;2023-02-14T01:44:00;103163.16;;;3.58;93.11
61786;BME280;47692;53.714;11.372;2023-02-14T01:46:28;103165.53;;;3.53;92.87
61786;BME280;47692;53.714;11.372;2023-02-14T01:49:02;103163.09;;;3.56;93.09
61786;BME280;47692;53.714;11.372;2023-02-14T01:51:30;103166.28;;;3.50;92.80
61786;BME280;47692;53.714;11.372;2023-02-14T01:53:56;103174.03;;;3.50;92.99
61786;BME280;47692;53.714;11.372;2023-02-14T01:56:29;103176.81;;;3.55;92.91
61786;BME280;47692;53.714;11.372;2023-02-14T01:59:00;103176.88;;;3.56;93.00
61786;BME280;47692;53.714;11.372;2023-02-14T02:01:28;103172.53;;;3.55;92.99
61786;BME280;47692;53.714;11.372;2023-02-14T02:03:55;103167.38;;;3.55;92.78
61786;BME280;47692;53.714;11.372;2023-02-14T02:06:25;103160.75;;;3.61;92.56
61786;BME280;47692;53.714;11.372;2023-02-14T02:11:45;103165.34;;;3.68;91.92
61786;BME280;47692;53.714;11.372;2023-02-14T02:14:14;103170.38;;;3.65;91.71
61786;BME280;47692;53.714;11.372;2023-02-14T02:22:10;103169.28;;;3.60;92.23
61786;BME280;47692;53.714;11.372;2023-02-14T02:24:50;103161.59;;;3.61;92.41
61786;BME280;47692;53.714;11.372;2023-02-14T02:30:14;103157.31;;;3.62;92.81
61786;BME280;47692;53.714;11.372;2023-02-14T02:33:07;103162.19;;;3.55;93.55
61786;BME280;47692;53.714;11.372;2023-02-14T02:36:00;103158.63;;;3.52;93.31
61786;BME280;47692;53.714;11.372;2023-02-14T02:38:39;103161.91;;;3.49;93.47
61786;BME280;47692;53.714;11.372;2023-02-14T02:44:17;103160.03;;;3.45;91.40
61786;BME280;47692;53.714;11.372;2023-02-14T02:50:31;103154.56;;;3.39;91.23
61786;BME280;47692;53.714;11.372;2023-02-14T02:53:29;103145.72;;;3.34;91.36
61786;BME280;47692;53.714;11.372;2023-02-14T02:56:15;103140.72;;;3.37;91.86
61786;BME280;47692;53.714;11.372;2023-02-14T02:59:07;103144.41;;;3.42;91.42
61786;BME280;47692;53.714;11.372;2023-02-14T03:01:47;103146.28;;;3.46;91.49
61786;BME280;47692;53.714;11.372;2023-02-14T03:04:15;103144.00;;;3.52;92.13
61786;BME280;47692;53.714;11.372;2023-02-14T03:06:59;103146.88;;;3.40;91.96
61786;BME280;47692;53.714;11.372;2023-02-14T03:12:15;103139.53;;;3.30;93.05
61786;BME280;47692;53.714;11.372;2023-02-14T03:14:56;103141.16;;;3.28;93.51
61786;BME280;47692;53.714;11.372;2023-02-14T03:17:36;103134.16;;;3.26;93.82
61786;BME280;47692;53.714;11.372;2023-02-14T03:20:19;103148.84;;;3.27;93.90
61786;BME280;47692;53.714;11.372;2023-02-14T03:23:07;103135.00;;;3.25;94.33
61786;BME280;47692;53.714;11.372;2023-02-14T03:28:18;103133.81;;;3.18;94.96
61786;BME280;47692;53.714;11.372;2023-02-14T03:30:53;103137.28;;;3.18;95.06
61786;BME280;47692;53.714;11.372;2023-02-14T03:33:30;103136.44;;;3.19;95.23
61786;BME280;47692;53.714;11.372;2023-02-14T03:36:02;103140.75;;;3.19;95.48
61786;BME280;47692;53.714;11.372;2023-02-14T03:41:00;103124.22;;;3.15;95.93
61786;BME280;47692;53.714;11.372;2023-02-14T03:43:33;103128.56;;;3.16;96.15
61786;BME280;47692;53.714;11.372;2023-02-14T03:46:10;103130.47;;;3.20;96.52
61786;BME280;47692;53.714;11.372;2023-02-14T03:48:39;103140.16;;;3.25;96.19
61786;BME280;47692;53.714;11.372;2023-02-14T03:51:07;103137.56;;;3.25;96.02
61786;BME280;47692;53.714;11.372;2023-02-14T03:53:36;103134.84;;;3.21;95.61
61786;BME280;47692;53.714;11.372;2023-02-14T03:56:16;103131.28;;;3.19;95.57
61786;BME280;47692;53.714;11.372;2023-02-14T03:58:46;103132.41;;;3.25;95.28
61786;BME280;47692;53.714;11.372;2023-02-14T04:01:20;103129.09;;;3.27;94.37
61786;BME280;47692;53.714;11.372;2023-02-14T04:03:49;103117.72;;;3.23;93.46
61786;BME280;47692;53.714;11.372;2023-02-14T04:06:17;103127.16;;;3.23;93.57
61786;BME280;47692;53.714;11.372;2023-02-14T04:08:43;103121.94;;;3.21;94.09
61786;BME280;47692;53.714;11.372;2023-02-14T04:11:08;103123.75;;;3.24;94.23
61786;BME280;47692;53.714;11.372;2023-02-14T04:13:34;103125.75;;;3.30;94.32
61786;BME280;47692;53.714;11.372;2023-02-14T04:16:01;103121.25;;;3.26;93.89
61786;BME280;47692;53.714;11.372;2023-02-14T04:18:26;103126.28;;;3.22;94.41
61786;BME280;47692;53.714;11.372;2023-02-14T04:21:10;103117.72;;;3.23;94.77
61786;BME280;47692;53.714;11.372;2023-02-14T04:23:35;103118.53;;;3.22;95.05
61786;BME280;47692;53.714;11.372;2023-02-14T04:26:01;103115.34;;;3.28;95.04
61786;BME280;47692;53.714;11.372;2023-02-14T04:28:28;103114.34;;;3.25;95.07
61786;BME280;47692;53.714;11.372;2023-02-14T04:30:53;103117.84;;;3.27;95.66
61786;BME280;47692;53.714;11.372;2023-02-14T04:33:19;103119.50;;;3.25;95.05
61786;BME280;47692;53.714;11.372;2023-02-14T04:35:44;103116.09;;;3.26;95.18
61786;BME280;47692;53.714;11.372;2023-02-14T04:38:10;103116.09;;;3.26;95.50
61786;BME280;47692;53.714;11.372;2023-02-14T04:40:35;103117.72;;;3.23;95.41
61786;BME280;47692;53.714;11.372;2023-02-14T04:43:01;103116.63;;;3.18;95.84
61786;BME280;47692;53.714;11.372;2023-02-14T04:45:26;103116.47;;;3.15;96.65
61786;BME280;47692;53.714;11.372;2023-02-14T04:47:51;103117.16;;;3.11;97.12
61786;BME280;47692;53.714;11.372;2023-02-14T04:50:17;103115.38;;;3.10;97.65
61786;BME280;47692;53.714;11.372;2023-02-14T04:52:42;103120.03;;;3.17;97.76
61786;BME280;47692;53.714;11.372;2023-02-14T04:55:09;103119.22;;;3.18;97.95
61786;BME280;47692;53.714;11.372;2023-02-14T04:57:34;103117.22;;;3.13;98.10
61786;BME280;47692;53.714;11.372;2023-02-14T05:00:00;103116.53;;;3.17;98.06
61786;BME280;47692;53.714;11.372;2023-02-14T05:02:25;103116.13;;;3.07;97.76
61786;BME280;47692;53.714;11.372;2023-02-14T05:04:50;103111.94;;;3.10;98.20
61786;BME280;47692;53.714;11.372;2023-02-14T05:07:16;103112.75;;;3.09;98.35
61786;BME280;47692;53.714;11.372;2023-02-14T05:09:41;103105.94;;;3.11;98.80
61786;BME280;47692;53.714;11.372;2023-02-14T05:12:06;103108.06;;;3.19;98.27
61786;BME280;47692;53.714;11.372;2023-02-14T05:14:32;103106.44;;;3.21;97.44
61786;BME280;47692;53.714;11.372;2023-02-14T05:16:57;103111.06;;;3.29;97.09
61786;BME280;47692;53.714;11.372;2023-02-14T05:19:22;103112.84;;;3.30;96.28
61786;BME280;47692;53.714;11.372;2023-02-14T05:21:48;103113.31;;;3.21;95.22
61786;BME280;47692;53.714;11.372;2023-02-14T05:24:14;103107.94;;;3.16;94.86
61786;BME280;47692;53.714;11.372;2023-02-14T05:26:39;103106.31;;;3.18;95.37
61786;BME280;47692;53.714;11.372;2023-02-14T05:29:05;103111.53;;;3.20;95.47
61786;BME280;47692;53.714;11.372;2023-02-14T05:31:30;103103.09;;;3.24;96.05
61786;BME280;47692;53.714;11.372;2023-02-14T05:33:56;103100.94;;;3.14;96.67
61786;BME280;47692;53.714;11.372;2023-02-14T05:36:21;103103.56;;;3.15;97.30
61786;BME280;47692;53.714;11.372;2023-02-14T05:38:46;103098.94;;;3.08;97.50
61786;BME280;47692;53.714;11.372;2023-02-14T05:41:12;103102.09;;;3.20;96.98
61786;BME280;47692;53.714;11.372;2023-02-14T05:43:37;103100.31;;;3.19;96.39
61786;BME280;47692;53.714;11.372;2023-02-14T05:46:02;103098.28;;;3.32;96.06
61786;BME280;47692;53.714;11.372;2023-02-14T05:48:28;103098.09;;;3.27;95.64
61786;BME280;47692;53.714;11.372;2023-02-14T05:50:53;103101.97;;;3.17;94.50
61786;BME280;47692;53.714;11.372;2023-02-14T05:53:19;103097.06;;;3.23;94.29
61786;BME280;47692;53.714;11.372;2023-02-14T05:55:44;103102.16;;;3.22;93.99
61786;BME280;47692;53.714;11.372;2023-02-14T05:58:09;103094.56;;;3.25;93.79
61786;BME280;47692;53.714;11.372;2023-02-14T06:00:36;103111.75;;;3.25;93.97
61786;BME280;47692;53.714;11.372;2023-02-14T06:03:02;103098.84;;;3.25;94.18
61786;BME280;47692;53.714;11.372;2023-02-14T06:05:27;103096.16;;;3.23;93.53
61786;BME280;47692;53.714;11.372;2023-02-14T06:07:53;103098.84;;;3.25;93.32
61786;BME280;47692;53.714;11.372;2023-02-14T06:10:23;103101.97;;;3.17;93.24
61786;BME280;47692;53.714;11.372;2023-02-14T06:12:50;103105.06;;;3.10;93.98
61786;BME280;47692;53.714;11.372;2023-02-14T06:15:16;103099.91;;;3.10;94.92
61786;BME280;47692;53.714;11.372;2023-02-14T06:17:42;103093.25;;;3.15;95.83
61786;BME280;47692;53.714;11.372;2023-02-14T06:20:08;103090.81;;;3.18;96.13
61786;BME280;47692;53.714;11.372;2023-02-14T06:22:35;103086.47;;;3.17;96.44
61786;BME280;47692;53.714;11.372;2023-02-14T06:25:01;103093.94;;;3.11;96.23
61786;BME280;47692;53.714;11.372;2023-02-14T06:27:28;103095.59;;;3.11;96.41
61786;BME280;47692;53.714;11.372;2023-02-14T06:29:54;103099.91;;;3.10;96.84
61786;BME280;47692;53.714;11.372;2023-02-14T06:32:19;103098.28;;;3.12;97.20
61786;BME280;47692;53.714;11.372;2023-02-14T06:34:44;103103.44;;;3.12;97.49
61786;BME280;47692;53.714;11.372;2023-02-14T06:37:10;103099.84;;;3.09;97.69
61786;BME280;47692;53.714;11.372;2023-02-14T06:39:35;103100.88;;;3.12;97.93
61786;BME280;47692;53.714;11.372;2023-02-14T06:42:01;103101.78;;;3.14;98.06
61786;BME280;47692;53.714;11.372;2023-02-14T06:44:26;103098.41;;;3.15;98.24
61786;BME280;47692;53.714;11.372;2023-02-14T06:46:51;103090.53;;;3.12;98.65
61786;BME280;47692;53.714;11.372;2023-02-14T06:49:17;103099.66;;;3.23;98.91
61786;BME280;47692;53.714;11.372;2023-02-14T06:51:42;103093.41;;;3.18;98.80
61786;BME280;47692;53.714;11.372;2023-02-14T06:54:07;103096.78;;;3.17;98.73
61786;BME280;47692;53.714;11.372;2023-02-14T06:56:32;103097.72;;;3.19;99.11
61786;BME280;47692;53.714;11.372;2023-02-14T06:58:58;103099.44;;;3.19;99.26
61786;BME280;47692;53.714;11.372;2023-02-14T07:01:23;103098.56;;;3.18;99.58
61786;BME280;47692;53.714;11.372;2023-02-14T07:03:49;103098.28;;;3.12;99.88
61786;BME280;47692;53.714;11.372;2023-02-14T07:06:14;103094.56;;;3.07;100.00
61786;BME280;47692;53.714;11.372;2023-02-14T07:08:39;103096.22;;;3.05;100.00
61786;BME280;47692;53.714;11.372;2023-02-14T07:11:06;103101.50;;;3.08;100.00
61786;BME280;47692;53.714;11.372;2023-02-14T07:13:31;103102.41;;;3.09;100.00
61786;BME280;47692;53.714;11.372;2023-02-14T07:15:57;103105.94;;;3.11;100.00
61786;BME280;47692;53.714;11.372;2023-02-14T07:18:22;103100.19;;;3.16;100.00
61786;BME280;47692;53.714;11.372;2023-02-14T07:20:49;103100.03;;;3.13;100.00
61786;BME280;47692;53.714;11.372;2023-02-14T07:23:14;103100.03;;;3.13;100.00
61786;BME280;47692;53.714;11.372;2023-02-14T07:25:39;103096.03;;;3.20;100.00
61786;BME280;47692;53.714;11.372;2023-02-14T07:28:05;103097.53;;;3.34;100.00
61786;BME280;47692;53.714;11.372;2023-02-14T07:30:30;103095.72;;;3.32;100.00
61786;BME280;47692;53.714;11.372;2023-02-14T07:32:56;103099.84;;;3.28;100.00
61786;BME280;47692;53.714;11.372;2023-02-14T07:35:21;103090.41;;;3.29;100.00
61786;BME280;47692;53.714;11.372;2023-02-14T07:37:48;103092.19;;;3.30;100.00
61786;BME280;47692;53.714;11.372;2023-02-14T07:40:14;103104.28;;;3.31;100.00
61786;BME280;47692;53.714;11.372;2023-02-14T07:42:39;103095.59;;;3.29;100.00
61786;BME280;47692;53.714;11.372;2023-02-14T07:45:05;103095.72;;;3.32;100.00
61786;BME280;47692;53.714;11.372;2023-02-14T07:47:31;103093.56;;;3.41;100.00
61786;BME280;47692;53.714;11.372;2023-02-14T07:49:57;103087.44;;;3.39;100.00
61786;BME280;47692;53.714;11.372;2023-02-14T07:52:22;103084.03;;;3.40;100.00
61786;BME280;47692;53.714;11.372;2023-02-14T07:54:47;103086.03;;;3.46;100.00
61786;BME280;47692;53.714;11.372;2023-02-14T07:57:13;103087.84;;;3.48;100.00
61786;BME280;47692;53.714;11.372;2023-02-14T07:59:38;103091.25;;;3.47;100.00
61786;BME280;47692;53.714;11.372;2023-02-14T08:02:04;103081.72;;;3.46;100.00
61786;BME280;47692;53.714;11.372;2023-02-14T08:04:29;103091.38;;;3.50;100.00
61786;BME280;47692;53.714;11.372;2023-02-14T08:06:54;103086.34;;;3.53;100.00
61786;BME280;47692;53.714;11.372;2023-02-14T08:09:20;103085.72;;;3.59;100.00
61786;BME280;47692;53.714;11.372;2023-02-14T08:11:52;103096.22;;;3.62;100.00
61786;BME280;47692;53.714;11.372;2023-02-14T08:14:42;103092.19;;;3.69;100.00
61786;BME280;47692;53.714;11.372;2023-02-14T08:17:08;103086.19;;;3.70;99.50
61786;BME280;47692;53.714;11.372;2023-02-14T08:19:35;103087.28;;;3.75;98.52
61786;BME280;47692;53.714;11.372;2023-02-14T08:22:01;103094.63;;;3.85;97.22
61786;BME280;47692;53.714;11.372;2023-02-14T08:24:27;103085.38;;;3.91;96.23
61786;BME280;47692;53.714;11.372;2023-02-14T08:26:52;103089.78;;;3.93;96.08
61786;BME280;47692;53.714;11.372;2023-02-14T08:29:18;103089.59;;;3.88;96.03
61786;BME280;47692;53.714;11.372;2023-02-14T08:31:43;103099.16;;;3.91;95.64
61786;BME280;47692;53.714;11.372;2023-02-14T08:34:09;103102.88;;;3.98;94.96
61786;BME280;47692;53.714;11.372;2023-02-14T08:36:34;103100.47;;;4.01;94.53
61786;BME280;47692;53.714;11.372;2023-02-14T08:39:00;103104.00;;;4.03;94.53
61786;BME280;47692;53.714;11.372;2023-02-14T08:41:26;103100.56;;;4.04;94.70
61786;BME280;47692;53.714;11.372;2023-02-14T08:43:51;103102.50;;;4.08;94.82
61786;BME280;47692;53.714;11.372;2023-02-14T08:46:16;103098.50;;;4.16;94.83
61786;BME280;47692;53.714;11.372;2023-02-14T08:48:42;103097.63;;;4.16;94.33
61786;BME280;47692;53.714;11.372;2023-02-14T08:51:11;103096.81;;;4.17;94.37
61786;BME280;47692;53.714;11.372;2023-02-14T08:53:38;103103.31;;;4.28;93.89
61786;BME280;47692;53.714;11.372;2023-02-14T08:56:08;103100.94;;;4.33;93.13
61786;BME280;47692;53.714;11.372;2023-02-14T08:58:34;103095.88;;;4.36;92.67
61786;BME280;47692;53.714;11.372;2023-02-14T09:01:18;103098.72;;;4.42;92.87
61786;BME280;47692;53.714;11.372;2023-02-14T09:03:44;103096.13;;;4.42;92.84
61786;BME280;47692;53.714;11.372;2023-02-14T09:06:12;103092.72;;;4.43;92.86
61786;BME280;47692;53.714;11.372;2023-02-14T09:08:39;103090.28;;;4.46;92.92
61786;BME280;47692;53.714;11.372;2023-02-14T09:11:16;103090.28;;;4.46;92.16
61786;BME280;47692;53.714;11.372;2023-02-14T09:13:47;103086.22;;;4.53;92.19
61786;BME280;47692;53.714;11.372;2023-02-14T09:16:14;103094.03;;;4.55;92.24
61786;BME280;47692;53.714;11.372;2023-02-14T09:18:42;103095.66;;;4.52;91.86
61786;BME280;47692;53.714;11.372;2023-02-14T09:21:09;103096.06;;;4.62;91.06
61786;BME280;47692;53.714;11.372;2023-02-14T09:23:35;103090.88;;;4.62;90.58
61786;BME280;47692;53.714;11.372;2023-02-14T09:26:05;103090.72;;;4.59;90.43
61786;BME280;47692;53.714;11.372;2023-02-14T09:28:31;103097.00;;;4.64;91.01
61786;BME280;47692;53.714;11.372;2023-02-14T09:30:57;103095.91;;;4.59;90.87
61786;BME280;47692;53.714;11.372;2023-02-14T09:33:25;103094.22;;;4.59;90.80
61786;BME280;47692;53.714;11.372;2023-02-14T09:35:50;103094.53;;;4.67;90.87
61786;BME280;47692;53.714;11.372;2023-02-14T09:38:16;103102.09;;;4.62;90.38
61786;BME280;47692;53.714;11.372;2023-02-14T09:40:45;103090.97;;;4.65;90.46
61786;BME280;47692;53.714;11.372;2023-02-14T09:43:20;103092.94;;;4.71;90.27
61786;BME280;47692;53.714;11.372;2023-02-14T09:45:52;103092.56;;;4.82;90.65
61786;BME280;47692;53.714;11.372;2023-02-14T09:48:30;103097.97;;;4.89;90.68
61786;BME280;47692;53.714;11.372;2023-02-14T09:51:12;103097.03;;;4.87;90.07
61786;BME280;47692;53.714;11.372;2023-02-14T09:54:18;103098.78;;;4.88;89.79
61786;BME280;47692;53.714;11.372;2023-02-14T09:56:51;103095.38;;;4.89;89.81
61786;BME280;47692;53.714;11.372;2023-02-14T10:02:08;103089.97;;;4.82;89.48
61786;BME280;47692;53.714;11.372;2023-02-14T10:07:39;103094.78;;;4.73;89.46
61786;BME280;47692;53.714;11.372;2023-02-14T10:10:13;103096.53;;;4.74;89.07
61786;BME280;47692;53.714;11.372;2023-02-14T10:12:52;103096.59;;;4.76;88.52
61786;BME280;47692;53.714;11.372;2023-02-14T10:15:29;103089.50;;;4.70;88.83
61786;BME280;47692;53.714;11.372;2023-02-14T10:18:02;103093.13;;;4.75;89.35
61786;BME280;47692;53.714;11.372;2023-02-14T10:20:42;103085.63;;;4.81;88.98
61786;BME280;47692;53.714;11.372;2023-02-14T10:23:31;103092.09;;;4.93;89.35
61786;BME280;47692;53.714;11.372;2023-02-14T10:26:02;103089.84;;;5.02;88.86
61786;BME280;47692;53.714;11.372;2023-02-14T10:28:34;103089.16;;;5.06;88.73
61786;BME280;47692;53.714;11.372;2023-02-14T10:31:19;103085.38;;;4.98;88.63
61786;BME280;47692;53.714;11.372;2023-02-14T10:34:00;103087.31;;;5.04;88.32
61786;BME280;47692;53.714;11.372;2023-02-14T10:47:38;103080.81;;;4.92;88.27
61786;BME280;47692;53.714;11.372;2023-02-14T10:53:14;103079.47;;;5.02;90.10
61786;BME280;47692;53.714;11.372;2023-02-14T10:55:51;103087.84;;;5.17;89.63
61786;BME280;47692;53.714;11.372;2023-02-14T10:58:21;103079.59;;;5.28;89.24
61786;BME280;47692;53.714;11.372;2023-02-14T11:00:58;103076.41;;;5.35;89.04
61786;BME280;47692;53.714;11.372;2023-02-14T11:03:27;103076.03;;;5.26;88.73
61786;BME280;47692;53.714;11.372;2023-02-14T11:05:53;103070.88;;;5.26;88.47
61786;BME280;47692;53.714;11.372;2023-02-14T11:08:24;103069.56;;;5.37;88.63
61786;BME280;47692;53.714;11.372;2023-02-14T11:10:52;103069.16;;;5.50;89.04
61786;BME280;47692;53.714;11.372;2023-02-14T11:13:33;103065.16;;;5.59;88.47
61786;BME280;47692;53.714;11.372;2023-02-14T11:16:05;103071.66;;;5.47;87.26
61786;BME280;47692;53.714;11.372;2023-02-14T11:18:31;103060.41;;;5.47;86.36
61786;BME280;47692;53.714;11.372;2023-02-14T11:23:36;103059.53;;;5.46;86.90
61786;BME280;47692;53.714;11.372;2023-02-14T11:26:04;103052.94;;;5.55;86.74
61786;BME280;47692;53.714;11.372;2023-02-14T11:28:33;103056.88;;;5.69;86.91
61786;BME280;47692;53.714;11.372;2023-02-14T11:30:59;103047.34;;;5.94;86.33
61786;BME280;47692;53.714;11.372;2023-02-14T11:33:37;103051.03;;;6.26;85.53
61786;BME280;47692;53.714;11.372;2023-02-14T11:36:11;103040.72;;;6.28;84.87
61786;BME280;47692;53.714;11.372;2023-02-14T11:38:38;103042.81;;;6.40;84.95
61786;BME280;47692;53.714;11.372;2023-02-14T11:41:10;103038.34;;;6.63;85.45
61786;BME280;47692;53.714;11.372;2023-02-14T11:43:39;103040.00;;;6.90;84.51
61786;BME280;47692;53.714;11.372;2023-02-14T11:46:15;103039.22;;;7.21;83.96
61786;BME280;47692;53.714;11.372;2023-02-14T11:51:35;103032.50;;;7.62;80.42
61786;BME280;47692;53.714;11.372;2023-02-14T11:54:02;103037.84;;;7.68;78.75
61786;BME280;47692;53.714;11.372;2023-02-14T11:56:50;103029.94;;;7.63;78.41
61786;BME280;47692;53.714;11.372;2023-02-14T11:59:46;103027.44;;;7.66;78.99
61786;BME280;47692;53.714;11.372;2023-02-14T12:04:52;103010.97;;;8.01;78.97
61786;BME280;47692;53.714;11.372;2023-02-14T12:07:26;103008.69;;;8.15;78.26
61786;BME280;47692;53.714;11.372;2023-02-14T12:10:30;103002.78;;;8.22;77.24
61786;BME280;47692;53.714;11.372;2023-02-14T12:23:53;102975.75;;;8.53;75.59
61786;BME280;47692;53.714;11.372;2023-02-14T12:26:33;102975.28;;;8.71;76.61
61786;BME280;47692;53.714;11.372;2023-02-14T12:29:21;102973.91;;;8.89;74.88
61786;BME280;47692;53.714;11.372;2023-02-14T12:31:50;102979.16;;;8.92;75.30
61786;BME280;47692;53.714;11.372;2023-02-14T12:34:16;102967.91;;;8.93;73.95
61786;BME280;47692;53.714;11.372;2023-02-14T12:40:14;102974.63;;;8.82;73.92
61786;BME280;47692;53.714;11.372;2023-02-14T12:42:58;102965.19;;;8.87;74.03
61786;BME280;47692;53.714;11.372;2023-02-14T12:53:40;102957.25;;;9.25;73.32
61786;BME280;47692;53.714;11.372;2023-02-14T12:56:35;102957.25;;;9.25;72.27
61786;BME280;47692;53.714;11.372;2023-02-14T12:59:23;102957.28;;;9.30;72.99
61786;BME280;47692;53.714;11.372;2023-02-14T13:10:37;102944.56;;;9.47;73.46
61786;BME280;47692;53.714;11.372;2023-02-14T13:13:20;102928.16;;;9.52;72.78
61786;BME280;47692;53.714;11.372;2023-02-14T13:15:57;102931.44;;;9.41;72.73
61786;BME280;47692;53.714;11.372;2023-02-14T13:18:42;102921.84;;;9.40;73.38
61786;BME280;47692;53.714;11.372;2023-02-14T13:21:16;102927.03;;;9.36;73.39
61786;BME280;47692;53.714;11.372;2023-02-14T13:23:46;102920.28;;;9.51;73.82
61786;BME280;47692;53.714;11.372;2023-02-14T13:26:26;102916.09;;;9.59;73.42
61786;BME280;47692;53.714;11.372;2023-02-14T13:29:01;102915.47;;;9.76;72.64
61786;BME280;47692;53.714;11.372;2023-02-14T13:31:28;102914.81;;;9.89;71.69
61786;BME280;47692;53.714;11.372;2023-02-14T13:34:02;102911.41;;;9.93;71.58
61786;BME280;47692;53.714;11.372;2023-02-14T13:36:31;102908.13;;;10.07;70.76
61786;BME280;47692;53.714;11.372;2023-02-14T13:38:58;102902.97;;;10.10;70.20
61786;BME280;47692;53.714;11.372;2023-02-14T13:41:25;102904.84;;;10.20;70.38
61786;BME280;47692;53.714;11.372;2023-02-14T13:43:58;102899.50;;;10.11;70.19
61786;BME280;47692;53.714;11.372;2023-02-14T13:49:02;102890.03;;;10.19;70.12
61786;BME280;47692;53.714;11.372;2023-02-14T13:51:51;102890.78;;;10.10;70.21
61786;BME280;47692;53.714;11.372;2023-02-14T13:56:56;102882.91;;;10.07;70.92
61786;BME280;47692;53.714;11.372;2023-02-14T13:59:26;102885.53;;;10.09;70.87
61786;BME280;47692;53.714;11.372;2023-02-14T14:01:52;102883.78;;;10.08;70.66
61786;BME280;47692;53.714;11.372;2023-02-14T14:17:40;102862.13;;;10.13;70.96
61786;BME280;47692;53.714;11.372;2023-02-14T14:22:48;102859.94;;;9.83;70.90
61786;BME280;47692;53.714;11.372;2023-02-14T14:27:54;102846.53;;;9.58;72.17
61786;BME280;47692;53.714;11.372;2023-02-14T14:30:28;102857.88;;;9.59;72.44
61786;BME280;47692;53.714;11.372;2023-02-14T14:33:11;102853.31;;;9.47;72.47
61786;BME280;47692;53.714;11.372;2023-02-14T14:35:36;102844.09;;;9.14;73.21
61786;BME280;47692;53.714;11.372;2023-02-14T14:38:02;102843.53;;;8.83;74.11
61786;BME280;47692;53.714;11.372;2023-02-14T14:40:33;102843.47;;;8.80;76.08
61786;BME280;47692;53.714;11.372;2023-02-14T14:43:10;102835.38;;;8.64;75.78
61786;BME280;47692;53.714;11.372;2023-02-14T14:45:37;102837.59;;;8.46;76.76
61786;BME280;47692;53.714;11.372;2023-02-14T14:48:10;102833.69;;;8.25;77.13
61786;BME280;47692;53.714;11.372;2023-02-14T14:50:36;102826.56;;;8.15;78.03